createdAt,value
2023-03-10T00:00:55.984Z,6.06
2023-03-10T00:01:58.151Z,6.09
2023-03-10T00:03:00.608Z,6.07
2023-03-10T00:04:04.330Z,6.07
2023-03-10T00:05:06.643Z,6.04
2023-03-10T00:06:09.354Z,6.02
2023-03-10T00:07:12.086Z,6.08
2023-03-10T00:08:14.105Z,6.02
2023-03-10T00:09:15.750Z,5.96
2023-03-10T00:10:18.325Z,6.01
2023-03-10T00:11:20.237Z,5.93
2023-03-10T00:12:23.182Z,5.93
2023-03-10T00:13:25.062Z,5.88
2023-03-10T00:14:28.359Z,5.85
2023-03-10T00:15:31.701Z,5.83
2023-03-10T00:16:34.006Z,5.88
2023-03-10T00:17:36.196Z,5.91
2023-03-10T00:18:38.871Z,5.86
2023-03-10T00:19:41.437Z,5.87
2023-03-10T00:20:43.192Z,5.86
2023-03-10T00:21:45.745Z,5.96
2023-03-10T00:22:47.593Z,6.00
2023-03-10T00:23:49.600Z,5.99
2023-03-10T00:24:51.726Z,5.95
2023-03-10T00:25:58.293Z,5.95
2023-03-10T00:27:00.145Z,5.95
2023-03-10T00:28:02.908Z,5.87
2023-03-10T00:29:05.229Z,5.84
2023-03-10T00:30:08.087Z,5.83
2023-03-10T00:31:15.420Z,5.81
2023-03-10T00:32:19.688Z,5.74
2023-03-10T00:33:22.542Z,5.69
2023-03-10T00:34:25.407Z,5.70
2023-03-10T00:35:30.309Z,5.61
2023-03-10T00:36:32.859Z,5.56
2023-03-10T00:37:37.870Z,5.60
2023-03-10T00:38:39.783Z,5.68
2023-03-10T00:39:42.713Z,5.80
2023-03-10T00:40:44.449Z,5.83
2023-03-10T00:41:46.122Z,5.76
2023-03-10T00:42:49.997Z,5.80
2023-03-10T00:43:52.695Z,5.78
2023-03-10T00:44:54.352Z,5.74
2023-03-10T00:45:57.989Z,5.66
2023-03-10T00:47:00.247Z,5.73
2023-03-10T00:48:02.129Z,5.79
2023-03-10T00:49:05.197Z,5.67
2023-03-10T00:50:07.571Z,5.65
2023-03-10T00:51:10.106Z,5.61
2023-03-10T00:52:12.103Z,5.60
2023-03-10T00:53:14.040Z,5.67
2023-03-10T00:54:15.779Z,5.61
2023-03-10T00:55:18.588Z,5.64
2023-03-10T00:56:25.225Z,5.63
2023-03-10T00:57:27.702Z,5.50
2023-03-10T00:58:30.568Z,5.40
2023-03-10T00:59:47.782Z,5.30
2023-03-10T01:00:51.448Z,5.16
2023-03-10T01:01:53.679Z,5.21
2023-03-10T01:02:55.663Z,5.08
2023-03-10T01:03:59.380Z,5.01
2023-03-10T01:05:01.154Z,5.00
2023-03-10T01:06:02.983Z,4.95
2023-03-10T01:07:05.149Z,4.86
2023-03-10T01:08:09.350Z,4.86
2023-03-10T01:09:13.728Z,4.87
2023-03-10T01:10:15.790Z,4.86
2023-03-10T01:11:20.595Z,4.89
2023-03-10T01:12:22.614Z,4.83
2023-03-10T01:13:24.347Z,4.82
2023-03-10T01:14:26.549Z,4.80
2023-03-10T01:15:29.878Z,4.81
2023-03-10T01:16:31.783Z,4.78
2023-03-10T01:17:33.691Z,4.73
2023-03-10T01:18:37.345Z,4.66
2023-03-10T01:19:39.156Z,4.73
2023-03-10T01:20:44.557Z,4.73
2023-03-10T01:21:47.842Z,4.72
2023-03-10T01:22:50.408Z,4.79
2023-03-10T01:23:52.640Z,4.79
2023-03-10T01:24:54.391Z,4.72
2023-03-10T01:25:56.418Z,4.69
2023-03-10T01:26:58.420Z,4.70
2023-03-10T01:28:00.648Z,4.71
2023-03-10T01:29:02.474Z,4.88
2023-03-10T01:30:04.572Z,4.88
2023-03-10T01:31:08.202Z,4.84
2023-03-10T01:32:10.625Z,4.88
2023-03-10T01:33:13.556Z,4.82
2023-03-10T01:34:15.336Z,4.80
2023-03-10T01:35:17.292Z,4.92
2023-03-10T01:36:22.600Z,4.93
2023-03-10T01:37:24.949Z,5.02
2023-03-10T01:38:26.832Z,5.02
2023-03-10T01:39:29.913Z,4.96
2023-03-10T01:40:32.568Z,4.89
2023-03-10T01:41:39.520Z,4.83
2023-03-10T01:42:41.475Z,4.84
2023-03-10T01:43:48.966Z,4.93
2023-03-10T01:45:15.786Z,4.93
2023-03-10T01:46:36.399Z,5.00
2023-03-10T01:47:43.851Z,5.08
2023-03-10T01:48:45.939Z,5.14
2023-03-10T01:49:49.212Z,5.28
2023-03-10T01:50:56.992Z,5.48
2023-03-10T01:52:05.897Z,5.70
2023-03-10T01:53:07.962Z,5.64
2023-03-10T01:54:15.979Z,5.67
2023-03-10T01:55:20.578Z,5.64
2023-03-10T01:56:22.632Z,5.54
2023-03-10T01:57:29.525Z,5.48
2023-03-10T01:58:37.270Z,5.40
2023-03-10T01:59:40.462Z,5.33
2023-03-10T02:00:43.469Z,5.25
2023-03-10T02:01:46.464Z,5.19
2023-03-10T02:03:13.140Z,5.05
2023-03-10T02:05:29.851Z,5.00
2023-03-10T02:06:32.296Z,4.99
2023-03-10T02:07:34.233Z,4.95
2023-03-10T02:08:42.368Z,4.95
2023-03-10T02:09:49.406Z,4.96
2023-03-10T02:10:51.474Z,4.88
2023-03-10T02:11:53.361Z,4.84
2023-03-10T02:12:55.150Z,4.80
2023-03-10T02:13:56.740Z,4.76
2023-03-10T02:14:58.541Z,4.78
2023-03-10T02:16:00.304Z,4.76
2023-03-10T02:17:04.287Z,4.79
2023-03-10T02:18:08.711Z,4.77
2023-03-10T02:19:27.922Z,4.80
2023-03-10T02:20:41.461Z,4.81
2023-03-10T02:21:49.068Z,4.85
2023-03-10T02:22:51.000Z,4.80
2023-03-10T02:24:07.193Z,4.89
2023-03-10T02:25:55.150Z,4.93
2023-03-10T02:27:02.432Z,4.98
2023-03-10T02:28:04.365Z,4.92
2023-03-10T02:29:09.592Z,4.99
2023-03-10T02:30:12.284Z,4.94
2023-03-10T02:31:14.523Z,4.94
2023-03-10T02:32:17.677Z,4.92
2023-03-10T02:33:30.871Z,4.84
2023-03-10T02:34:33.630Z,4.75
2023-03-10T02:35:35.448Z,4.72
2023-03-10T02:36:41.379Z,4.70
2023-03-10T02:37:45.564Z,4.76
2023-03-10T02:38:47.418Z,4.74
2023-03-10T02:39:49.036Z,4.71
2023-03-10T02:40:52.171Z,4.73
2023-03-10T02:41:57.686Z,4.75
2023-03-10T02:43:06.214Z,4.76
2023-03-10T02:44:10.670Z,4.92
2023-03-10T02:45:12.418Z,4.90
2023-03-10T02:46:14.351Z,4.91
2023-03-10T02:47:18.147Z,4.91
2023-03-10T02:48:31.254Z,5.08
2023-03-10T02:49:35.477Z,5.03
2023-03-10T02:50:38.708Z,5.02
2023-03-10T02:51:45.038Z,5.05
2023-03-10T02:52:56.156Z,5.04
2023-03-10T02:53:57.888Z,5.06
2023-03-10T02:55:00.512Z,5.02
2023-03-10T02:56:02.547Z,5.01
2023-03-10T02:57:06.872Z,5.02
2023-03-10T02:58:08.785Z,5.00
2023-03-10T02:59:11.041Z,5.07
2023-03-10T03:00:17.387Z,5.05
2023-03-10T03:01:19.668Z,5.02
2023-03-10T03:02:21.301Z,5.04
2023-03-10T03:03:23.300Z,5.16
2023-03-10T03:04:25.081Z,5.17
2023-03-10T03:05:26.949Z,5.22
2023-03-10T03:06:29.409Z,5.15
2023-03-10T03:07:30.960Z,5.17
2023-03-10T03:08:33.354Z,5.16
2023-03-10T03:09:36.148Z,5.23
2023-03-10T03:10:38.920Z,5.28
2023-03-10T03:11:41.811Z,5.32
2023-03-10T03:12:44.545Z,5.35
2023-03-10T03:13:46.118Z,5.42
2023-03-10T03:14:48.859Z,5.42
2023-03-10T03:15:50.471Z,5.33
2023-03-10T03:16:52.382Z,5.31
2023-03-10T03:17:58.638Z,5.46
2023-03-10T03:19:00.877Z,5.50
2023-03-10T03:20:11.711Z,5.53
2023-03-10T03:21:17.973Z,5.57
2023-03-10T03:22:20.802Z,5.60
2023-03-10T03:23:22.531Z,5.60
2023-03-10T03:24:24.913Z,5.70
2023-03-10T03:25:28.632Z,5.65
2023-03-10T03:26:30.419Z,5.64
2023-03-10T03:27:50.196Z,5.70
2023-03-10T03:28:52.259Z,5.69
2023-03-10T03:29:58.666Z,5.69
2023-03-10T03:31:01.968Z,5.71
2023-03-10T03:32:05.327Z,5.73
2023-03-10T03:33:08.933Z,5.76
2023-03-10T03:34:12.083Z,5.76
2023-03-10T03:35:19.766Z,5.71
2023-03-10T03:36:21.412Z,5.72
2023-03-10T03:37:23.076Z,5.73
2023-03-10T03:38:24.838Z,5.86
2023-03-10T03:39:26.616Z,5.80
2023-03-10T03:40:33.612Z,5.90
2023-03-10T03:41:35.844Z,5.87
2023-03-10T03:42:38.085Z,5.91
2023-03-10T03:43:39.941Z,5.88
2023-03-10T03:44:42.574Z,5.94
2023-03-10T03:45:45.403Z,6.02
2023-03-10T03:46:47.730Z,6.00
2023-03-10T03:47:50.575Z,5.99
2023-03-10T03:48:52.264Z,5.96
2023-03-10T03:49:54.413Z,5.93
2023-03-10T03:50:56.545Z,5.85
2023-03-10T03:52:06.004Z,5.93
2023-03-10T03:53:07.811Z,5.95
2023-03-10T03:54:09.534Z,5.96
2023-03-10T03:55:15.231Z,5.93
2023-03-10T03:56:18.549Z,6.01
2023-03-10T03:57:20.727Z,6.06
2023-03-10T03:58:22.409Z,6.10
2023-03-10T03:59:25.441Z,6.06
2023-03-10T04:00:27.332Z,5.94
2023-03-10T04:01:37.859Z,5.99
2023-03-10T04:02:41.208Z,6.05
2023-03-10T04:03:44.036Z,5.97
2023-03-10T04:04:48.559Z,5.93
2023-03-10T04:05:51.430Z,5.96
2023-03-10T04:06:54.823Z,6.08
2023-03-10T04:07:57.190Z,6.10
2023-03-10T04:08:59.434Z,6.09
2023-03-10T04:10:03.702Z,6.00
2023-03-10T04:11:05.481Z,6.02
2023-03-10T04:12:10.114Z,6.09
2023-03-10T04:13:13.204Z,6.08
2023-03-10T04:14:14.925Z,6.11
2023-03-10T04:15:16.933Z,6.16
2023-03-10T04:16:18.578Z,6.22
2023-03-10T04:17:20.613Z,6.14
2023-03-10T04:18:22.368Z,6.14
2023-03-10T04:19:24.308Z,6.21
2023-03-10T04:20:30.275Z,6.25
2023-03-10T04:21:31.980Z,6.25
2023-03-10T04:22:34.389Z,6.35
2023-03-10T04:23:36.176Z,6.35
2023-03-10T04:24:39.461Z,6.43
2023-03-10T04:25:43.225Z,6.40
2023-03-10T04:26:46.280Z,6.54
2023-03-10T04:27:47.935Z,6.53
2023-03-10T04:28:49.817Z,6.53
2023-03-10T04:29:53.175Z,6.63
2023-03-10T04:30:55.025Z,6.59
2023-03-10T04:32:05.730Z,6.72
2023-03-10T04:33:11.182Z,6.73
2023-03-10T04:34:13.323Z,6.69
2023-03-10T04:35:15.548Z,6.66
2023-03-10T04:36:18.551Z,6.62
2023-03-10T04:37:22.960Z,6.62
2023-03-10T04:38:24.725Z,6.61
2023-03-10T04:39:27.801Z,6.85
2023-03-10T04:40:29.476Z,6.90
2023-03-10T04:41:31.159Z,6.87
2023-03-10T04:42:33.213Z,6.99
2023-03-10T04:43:35.808Z,6.89
2023-03-10T04:44:37.456Z,6.94
2023-03-10T04:45:40.866Z,6.99
2023-03-10T04:46:43.494Z,7.04
2023-03-10T04:47:45.489Z,7.09
2023-03-10T04:48:47.810Z,7.31
2023-03-10T04:49:50.274Z,7.40
2023-03-10T04:51:00.320Z,7.51
2023-03-10T04:52:05.523Z,7.61
2023-03-10T04:53:07.220Z,7.67
2023-03-10T04:54:08.986Z,7.74
2023-03-10T04:55:11.324Z,7.74
2023-03-10T04:56:13.129Z,7.75
2023-03-10T04:57:16.226Z,7.85
2023-03-10T04:58:19.940Z,7.81
2023-03-10T04:59:21.648Z,7.77
2023-03-10T05:00:23.367Z,7.75
2023-03-10T05:01:32.431Z,7.79
2023-03-10T05:02:37.629Z,7.82
2023-03-10T05:03:39.313Z,7.84
2023-03-10T05:04:42.890Z,7.79
2023-03-10T05:05:45.236Z,7.73
2023-03-10T05:06:52.264Z,7.68
2023-03-10T05:08:01.358Z,7.65
2023-03-10T05:09:04.763Z,7.63
2023-03-10T05:10:08.544Z,7.67
2023-03-10T05:11:10.835Z,7.66
2023-03-10T05:12:12.552Z,7.64
2023-03-10T05:13:15.176Z,7.59
2023-03-10T05:14:17.563Z,7.56
2023-03-10T05:15:19.350Z,7.58
2023-03-10T05:16:22.719Z,7.55
2023-03-10T05:17:28.387Z,7.54
2023-03-10T05:18:29.983Z,7.56
2023-03-10T05:19:34.609Z,7.54
2023-03-10T05:20:37.321Z,7.48
2023-03-10T05:21:39.040Z,7.42
2023-03-10T05:22:40.937Z,7.41
2023-03-10T05:23:43.989Z,7.31
2023-03-10T05:24:48.260Z,7.34
2023-03-10T05:25:51.650Z,7.33
2023-03-10T05:26:55.103Z,7.25
2023-03-10T05:27:56.939Z,7.26
2023-03-10T05:28:59.041Z,7.19
2023-03-10T05:30:15.486Z,7.18
2023-03-10T05:31:25.998Z,7.16
2023-03-10T05:32:36.090Z,7.08
2023-03-10T05:33:37.995Z,7.07
2023-03-10T05:34:39.659Z,7.06
2023-03-10T05:35:41.557Z,7.12
2023-03-10T05:36:43.699Z,7.04
2023-03-10T05:37:45.468Z,7.05
2023-03-10T05:38:47.133Z,7.04
2023-03-10T05:39:50.116Z,7.03
2023-03-10T05:40:54.659Z,7.06
2023-03-10T05:41:56.360Z,7.04
2023-03-10T05:43:01.485Z,7.01
2023-03-10T05:44:04.676Z,7.03
2023-03-10T05:45:08.159Z,7.04
2023-03-10T05:46:11.557Z,7.02
2023-03-10T05:47:19.225Z,7.00
2023-03-10T05:48:21.819Z,6.99
2023-03-10T05:49:23.557Z,7.04
2023-03-10T05:50:26.332Z,7.03
2023-03-10T05:51:28.318Z,7.04
2023-03-10T05:52:30.645Z,6.99
2023-03-10T05:53:33.377Z,6.97
2023-03-10T05:54:36.915Z,6.99
2023-03-10T05:55:38.550Z,6.96
2023-03-10T05:56:40.300Z,6.92
2023-03-10T05:57:42.524Z,6.95
2023-03-10T05:58:45.594Z,6.94
2023-03-10T05:59:49.160Z,6.88
2023-03-10T06:00:51.564Z,6.87
2023-03-10T06:01:53.153Z,6.93
2023-03-10T06:02:54.896Z,6.88
2023-03-10T06:03:56.723Z,6.89
2023-03-10T06:04:58.394Z,6.84
2023-03-10T06:06:00.910Z,6.81
2023-03-10T06:07:02.973Z,6.80
2023-03-10T06:08:05.469Z,6.85
2023-03-10T06:09:07.183Z,6.85
2023-03-10T06:10:09.836Z,6.80
2023-03-10T06:11:12.382Z,6.76
2023-03-10T06:12:13.901Z,6.80
2023-03-10T06:13:16.128Z,6.81
2023-03-10T06:14:17.670Z,6.75
2023-03-10T06:15:19.289Z,6.79
2023-03-10T06:16:20.959Z,6.77
2023-03-10T06:17:22.581Z,6.76
2023-03-10T06:18:24.701Z,6.73
2023-03-10T06:19:26.551Z,6.89
2023-03-10T06:20:28.232Z,6.86
2023-03-10T06:21:29.868Z,6.88
2023-03-10T06:22:31.544Z,6.94
2023-03-10T06:23:33.260Z,6.90
2023-03-10T06:24:34.900Z,6.85
2023-03-10T06:25:37.006Z,6.90
2023-03-10T06:26:39.213Z,6.88
2023-03-10T06:27:40.869Z,6.99
2023-03-10T06:28:44.437Z,7.00
2023-03-10T06:29:48.472Z,7.03
2023-03-10T06:30:57.322Z,7.07
2023-03-10T06:31:59.031Z,7.05
2023-03-10T06:33:00.888Z,7.07
2023-03-10T06:34:04.420Z,7.09
2023-03-10T06:35:06.423Z,7.07
2023-03-10T06:36:09.813Z,7.12
2023-03-10T06:37:11.495Z,7.09
2023-03-10T06:38:14.151Z,7.11
2023-03-10T06:39:15.740Z,7.10
2023-03-10T06:40:17.447Z,7.04
2023-03-10T06:41:19.737Z,7.06
2023-03-10T06:42:21.418Z,7.05
2023-03-10T06:43:23.296Z,7.09
2023-03-10T06:44:24.934Z,7.12
2023-03-10T06:45:26.520Z,7.13
2023-03-10T06:46:29.033Z,7.14
2023-03-10T06:47:30.761Z,7.16
2023-03-10T06:48:32.867Z,7.13
2023-03-10T06:49:34.610Z,7.06
2023-03-10T06:50:36.293Z,7.11
2023-03-10T06:51:37.894Z,7.13
2023-03-10T06:52:39.645Z,7.22
2023-03-10T06:53:41.375Z,7.30
2023-03-10T06:54:42.972Z,7.31
2023-03-10T06:55:45.200Z,7.33
2023-03-10T06:56:46.801Z,7.32
2023-03-10T06:57:48.475Z,7.34
2023-03-10T06:58:50.153Z,7.26
2023-03-10T06:59:51.759Z,7.21
2023-03-10T07:00:53.535Z,7.26
2023-03-10T07:01:55.187Z,7.28
2023-03-10T07:02:56.835Z,7.35
2023-03-10T07:03:59.058Z,7.31
2023-03-10T07:05:00.750Z,7.43
2023-03-10T07:06:02.584Z,7.46
2023-03-10T07:07:04.211Z,7.46
2023-03-10T07:08:05.853Z,7.45
2023-03-10T07:09:07.536Z,7.48
2023-03-10T07:10:10.051Z,7.53
2023-03-10T07:11:11.560Z,7.60
2023-03-10T07:12:13.572Z,7.58
2023-03-10T07:13:17.176Z,7.62
2023-03-10T07:14:18.849Z,7.71
2023-03-10T07:15:22.478Z,7.72
2023-03-10T07:16:24.519Z,7.82
2023-03-10T07:17:26.327Z,7.72
2023-03-10T07:18:29.612Z,7.85
2023-03-10T07:19:31.286Z,7.88
2023-03-10T07:20:32.980Z,7.77
2023-03-10T07:21:34.591Z,7.84
2023-03-10T07:22:36.181Z,7.93
2023-03-10T07:23:39.324Z,7.95
2023-03-10T07:24:40.907Z,8.08
2023-03-10T07:25:42.521Z,8.20
2023-03-10T07:26:44.238Z,8.18
2023-03-10T07:27:46.256Z,8.17
2023-03-10T07:28:47.926Z,8.26
2023-03-10T07:29:49.588Z,8.27
2023-03-10T07:30:51.322Z,8.35
2023-03-10T07:31:53.086Z,8.42
2023-03-10T07:32:54.762Z,8.54
2023-03-10T07:33:56.505Z,8.48
2023-03-10T07:34:58.327Z,8.44
2023-03-10T07:36:04.453Z,8.57
2023-03-10T07:37:06.156Z,8.66
2023-03-10T07:38:07.775Z,8.73
2023-03-10T07:39:09.508Z,8.88
2023-03-10T07:40:11.676Z,8.76
2023-03-10T07:41:18.412Z,8.95
2023-03-10T07:42:20.013Z,9.04
2023-03-10T07:43:21.728Z,8.85
2023-03-10T07:44:23.543Z,8.84
2023-03-10T07:45:26.070Z,9.01
2023-03-10T07:46:27.895Z,9.05
2023-03-10T07:47:30.265Z,9.11
2023-03-10T07:48:31.947Z,9.21
2023-03-10T07:49:33.550Z,9.18
2023-03-10T07:50:35.204Z,9.21
2023-03-10T07:51:37.986Z,9.32
2023-03-10T07:52:39.703Z,9.41
2023-03-10T07:53:41.351Z,9.44
2023-03-10T07:54:44.433Z,9.60
2023-03-10T07:55:46.085Z,9.84
2023-03-10T07:56:49.995Z,9.91
2023-03-10T07:57:52.597Z,10.12
2023-03-10T07:58:54.258Z,9.96
2023-03-10T07:59:55.900Z,10.04
2023-03-10T08:00:58.787Z,10.23
2023-03-10T08:02:00.507Z,10.20
2023-03-10T08:03:02.145Z,10.48
2023-03-10T08:04:04.089Z,10.43
2023-03-10T08:05:06.439Z,10.70
2023-03-10T08:06:08.229Z,10.72
2023-03-10T08:07:09.831Z,10.68
2023-03-10T08:08:14.417Z,10.79
2023-03-10T08:09:16.030Z,10.92
2023-03-10T08:10:18.769Z,11.00
2023-03-10T08:11:21.431Z,11.16
2023-03-10T08:12:23.029Z,11.05
2023-03-10T08:13:24.739Z,11.17
2023-03-10T08:14:28.952Z,11.28
2023-03-10T08:15:30.514Z,11.42
2023-03-10T08:16:32.258Z,11.35
2023-03-10T08:17:33.962Z,11.53
2023-03-10T08:18:35.740Z,11.48
2023-03-10T08:19:38.051Z,11.52
2023-03-10T08:20:40.690Z,11.65
2023-03-10T08:21:46.077Z,11.79
2023-03-10T08:22:47.752Z,12.05
2023-03-10T08:23:49.767Z,12.38
2023-03-10T08:24:51.509Z,12.52
2023-03-10T08:25:53.214Z,12.62
2023-03-10T08:26:54.986Z,12.78
2023-03-10T08:27:56.557Z,12.92
2023-03-10T08:28:58.244Z,13.08
2023-03-10T08:29:59.851Z,13.25
2023-03-10T08:31:08.567Z,13.43
2023-03-10T08:32:10.338Z,13.46
2023-03-10T08:33:12.028Z,13.54
2023-03-10T08:34:15.095Z,13.74
2023-03-10T08:35:16.930Z,13.79
2023-03-10T08:36:21.290Z,13.84
2023-03-10T08:37:23.022Z,13.93
2023-03-10T08:38:24.690Z,14.32
2023-03-10T08:39:27.772Z,14.49
2023-03-10T08:40:29.473Z,14.56
2023-03-10T08:41:44.357Z,14.84
2023-03-10T08:42:48.284Z,15.04
2023-03-10T08:43:52.392Z,15.52
2023-03-10T08:44:57.269Z,16.32
2023-03-10T08:45:58.966Z,15.66
2023-03-10T08:47:00.821Z,16.26
2023-03-10T08:48:02.450Z,17.07
2023-03-10T08:49:04.155Z,17.43
2023-03-10T08:50:07.625Z,16.78
2023-03-10T08:51:09.491Z,17.01
2023-03-10T08:52:11.192Z,17.39
2023-03-10T08:53:12.930Z,17.46
2023-03-10T08:54:17.367Z,15.90
2023-03-10T08:55:19.006Z,14.78
2023-03-10T08:56:21.789Z,14.25
2023-03-10T08:57:23.451Z,13.52
2023-03-10T08:58:25.228Z,12.94
2023-03-10T08:59:27.110Z,12.68
2023-03-10T09:00:28.788Z,12.58
2023-03-10T09:01:34.341Z,12.78
2023-03-10T09:02:35.995Z,12.44
2023-03-10T09:03:42.406Z,12.15
2023-03-10T09:04:44.038Z,11.79
2023-03-10T09:05:45.889Z,11.60
2023-03-10T09:06:47.510Z,11.50
2023-03-10T09:07:49.154Z,11.38
2023-03-10T09:08:50.852Z,11.17
2023-03-10T09:09:52.491Z,11.12
2023-03-10T09:10:54.139Z,10.97
2023-03-10T09:11:55.761Z,10.81
2023-03-10T09:13:12.727Z,10.69
2023-03-10T09:14:18.820Z,10.45
2023-03-10T09:15:20.475Z,10.24
2023-03-10T09:16:22.200Z,10.08
2023-03-10T09:17:23.908Z,9.87
2023-03-10T09:18:25.862Z,9.62
2023-03-10T09:19:27.619Z,9.53
2023-03-10T09:20:29.532Z,9.45
2023-03-10T09:21:33.628Z,9.30
2023-03-10T09:22:35.475Z,9.30
2023-03-10T09:23:37.176Z,9.32
2023-03-10T09:24:38.842Z,9.46
2023-03-10T09:25:40.659Z,10.11
2023-03-10T09:26:44.578Z,10.63
2023-03-10T09:27:47.005Z,10.72
2023-03-10T09:28:51.027Z,10.60
2023-03-10T09:29:52.713Z,10.45
2023-03-10T09:30:55.086Z,10.23
2023-03-10T09:31:56.801Z,10.17
2023-03-10T09:32:58.601Z,10.26
2023-03-10T09:34:00.256Z,10.20
2023-03-10T09:35:01.857Z,10.14
2023-03-10T09:36:07.723Z,9.99
2023-03-10T09:37:09.901Z,9.90
2023-03-10T09:38:12.972Z,9.81
2023-03-10T09:39:14.586Z,9.63
2023-03-10T09:40:20.137Z,9.61
2023-03-10T09:41:44.424Z,9.47
2023-03-10T09:43:15.726Z,9.35
2023-03-10T09:44:42.707Z,9.51
2023-03-10T09:45:53.372Z,9.45
2023-03-10T09:47:13.191Z,9.30
2023-03-10T09:48:20.409Z,9.39
2023-03-10T09:49:33.519Z,9.88
2023-03-10T09:50:45.390Z,10.01
2023-03-10T09:51:49.223Z,10.22
2023-03-10T09:53:07.373Z,10.57
2023-03-10T09:54:09.695Z,10.97
2023-03-10T09:55:25.887Z,11.48
2023-03-10T09:56:35.314Z,11.11
2023-03-10T09:57:37.188Z,10.65
2023-03-10T09:58:45.756Z,10.23
2023-03-10T09:59:47.723Z,9.80
2023-03-10T10:00:49.370Z,9.65
2023-03-10T10:01:52.341Z,9.56
2023-03-10T10:03:08.926Z,9.52
2023-03-10T10:04:25.182Z,9.20
2023-03-10T10:05:31.439Z,9.14
2023-03-10T10:06:35.744Z,8.94
2023-03-10T10:07:47.010Z,8.76
2023-03-10T10:09:03.824Z,8.59
2023-03-10T10:10:14.320Z,8.45
2023-03-10T10:11:17.796Z,8.38
2023-03-10T10:12:23.835Z,8.32
2023-03-10T10:13:30.489Z,8.48
2023-03-10T10:14:33.238Z,8.51
2023-03-10T10:15:36.474Z,8.38
2023-03-10T10:16:48.663Z,8.32
2023-03-10T10:18:20.257Z,8.34
2023-03-10T10:19:26.014Z,8.34
2023-03-10T10:20:33.091Z,8.40
2023-03-10T10:21:49.396Z,8.32
2023-03-10T10:22:51.098Z,8.32
2023-03-10T10:23:59.258Z,8.40
2023-03-10T10:25:09.801Z,8.60
2023-03-10T10:26:14.297Z,8.75
2023-03-10T10:27:18.689Z,8.99
2023-03-10T10:28:43.438Z,9.29
2023-03-10T10:29:47.102Z,9.46
2023-03-10T10:30:49.089Z,9.49
2023-03-10T10:32:10.379Z,9.63
2023-03-10T10:33:14.082Z,9.94
2023-03-10T10:34:21.174Z,10.87
2023-03-10T10:35:24.547Z,11.89
2023-03-10T10:36:32.199Z,12.54
2023-03-10T10:37:42.851Z,12.70
2023-03-10T10:38:49.529Z,12.51
2023-03-10T10:39:52.179Z,11.59
2023-03-10T10:41:09.982Z,12.64
2023-03-10T10:42:26.893Z,12.90
2023-03-10T10:43:29.131Z,13.37
2023-03-10T10:44:40.507Z,13.56
2023-03-10T10:45:42.138Z,13.66
2023-03-10T10:46:56.824Z,14.06
2023-03-10T10:47:58.506Z,14.19
2023-03-10T10:49:02.645Z,14.11
2023-03-10T10:50:19.731Z,13.97
2023-03-10T10:51:29.907Z,14.53
2023-03-10T10:52:33.504Z,14.80
2023-03-10T10:53:37.564Z,14.61
2023-03-10T10:54:41.498Z,14.82
2023-03-10T10:55:44.447Z,14.46
2023-03-10T10:56:57.459Z,14.68
2023-03-10T10:58:01.890Z,14.77
2023-03-10T10:59:05.125Z,14.98
2023-03-10T11:00:25.290Z,14.73
2023-03-10T11:01:27.141Z,15.01
2023-03-10T11:02:33.256Z,13.83
2023-03-10T11:03:39.895Z,14.39
2023-03-10T11:04:46.370Z,14.78
2023-03-10T11:05:48.059Z,14.79
2023-03-10T11:06:50.490Z,14.61
2023-03-10T11:07:52.317Z,14.21
2023-03-10T11:09:10.900Z,14.98
2023-03-10T11:10:15.322Z,14.79
2023-03-10T11:11:40.785Z,14.12
2023-03-10T11:13:06.341Z,13.91
2023-03-10T11:14:13.841Z,14.48
2023-03-10T11:15:18.416Z,14.21
2023-03-10T11:16:33.806Z,14.53
2023-03-10T11:17:43.267Z,14.46
2023-03-10T11:18:52.096Z,13.30
2023-03-10T11:20:25.724Z,13.14
2023-03-10T11:21:29.411Z,12.22
2023-03-10T11:22:40.017Z,12.24
2023-03-10T11:23:44.604Z,12.98
2023-03-10T11:25:10.636Z,12.37
2023-03-10T11:26:57.306Z,12.56
2023-03-10T11:28:05.136Z,12.12
2023-03-10T11:29:27.476Z,11.61
2023-03-10T11:30:35.091Z,11.42
2023-03-10T11:32:27.470Z,11.36
2023-03-10T11:33:49.323Z,11.58
2023-03-10T11:34:54.014Z,12.05
2023-03-10T11:36:43.281Z,11.51
2023-03-10T11:38:00.002Z,11.74
2023-03-10T11:39:17.573Z,11.88
2023-03-10T11:40:24.430Z,12.34
2023-03-10T11:41:28.785Z,12.58
2023-03-10T11:42:39.296Z,12.65
2023-03-10T11:43:52.214Z,12.55
2023-03-10T11:45:02.858Z,13.09
2023-03-10T11:46:20.026Z,13.28
2023-03-10T11:47:41.501Z,13.19
2023-03-10T11:48:55.277Z,13.21
2023-03-10T11:50:04.684Z,12.78
2023-03-10T11:51:06.573Z,12.54
2023-03-10T11:52:14.793Z,12.79
2023-03-10T11:53:41.110Z,12.74
2023-03-10T11:54:49.624Z,12.96
2023-03-10T11:55:51.237Z,13.07
2023-03-10T11:56:59.903Z,13.03
2023-03-10T11:58:03.672Z,12.39
2023-03-10T11:59:21.898Z,12.69
2023-03-10T12:00:29.622Z,12.68
2023-03-10T12:01:34.252Z,12.87
2023-03-10T12:02:52.987Z,12.83
2023-03-10T12:04:40.307Z,12.65
2023-03-10T12:05:50.911Z,12.21
2023-03-10T12:07:01.068Z,12.31
2023-03-10T12:08:03.848Z,12.17
2023-03-10T12:09:07.531Z,12.07
2023-03-10T12:10:12.135Z,11.94
2023-03-10T12:11:17.331Z,12.08
2023-03-10T12:12:32.684Z,12.05
2023-03-10T12:13:43.821Z,11.90
2023-03-10T12:14:46.833Z,12.17
2023-03-10T12:15:49.786Z,12.29
2023-03-10T12:16:51.964Z,12.13
2023-03-10T12:17:54.169Z,12.09
2023-03-10T12:18:56.043Z,12.21
2023-03-10T12:20:33.247Z,12.20
2023-03-10T12:21:34.890Z,12.17
2023-03-10T12:22:47.037Z,12.02
2023-03-10T12:23:51.707Z,12.22
2023-03-10T12:24:53.426Z,12.23
2023-03-10T12:25:55.060Z,11.93
2023-03-10T12:27:01.986Z,11.82
2023-03-10T12:28:24.314Z,11.93
2023-03-10T12:29:25.933Z,11.81
2023-03-10T12:30:47.538Z,11.95
2023-03-10T12:31:51.559Z,12.09
2023-03-10T12:32:53.620Z,12.10
2023-03-10T12:34:08.945Z,12.16
2023-03-10T12:35:28.664Z,11.71
2023-03-10T12:36:33.496Z,11.55
2023-03-10T12:37:35.321Z,11.67
2023-03-10T12:38:46.952Z,11.46
2023-03-10T12:39:48.613Z,11.38
2023-03-10T12:40:51.832Z,11.50
2023-03-10T12:41:57.221Z,11.59
2023-03-10T12:42:58.860Z,11.58
2023-03-10T12:44:22.549Z,11.82
2023-03-10T12:45:29.461Z,11.85
2023-03-10T12:46:49.777Z,11.77
2023-03-10T12:48:11.165Z,11.68
2023-03-10T12:49:27.694Z,11.51
2023-03-10T12:50:52.771Z,11.16
2023-03-10T12:52:24.987Z,11.15
2023-03-10T12:53:32.818Z,11.07
2023-03-10T12:55:03.657Z,10.86
2023-03-10T12:56:11.772Z,10.91
2023-03-10T12:57:38.613Z,11.04
2023-03-10T12:58:57.852Z,11.13
2023-03-10T13:00:29.098Z,10.96
2023-03-10T13:01:36.655Z,11.07
2023-03-10T13:03:03.284Z,11.15
2023-03-10T13:04:06.184Z,11.09
2023-03-10T13:05:19.263Z,11.18
2023-03-10T13:06:29.319Z,11.14
2023-03-10T13:07:31.378Z,11.23
2023-03-10T13:08:48.821Z,11.13
2023-03-10T13:09:51.055Z,11.10
2023-03-10T13:10:55.716Z,11.07
2023-03-10T13:12:00.867Z,10.96
2023-03-10T13:13:05.616Z,10.80
2023-03-10T13:14:18.342Z,10.64
2023-03-10T13:15:25.799Z,10.53
2023-03-10T13:16:27.638Z,10.61
2023-03-10T13:17:31.608Z,10.62
2023-03-10T13:18:34.505Z,10.60
2023-03-10T13:20:05.746Z,10.62
2023-03-10T13:21:07.719Z,10.70
2023-03-10T13:22:17.087Z,10.48
2023-03-10T13:23:32.405Z,10.52
2023-03-10T13:24:36.221Z,10.50
2023-03-10T13:25:37.825Z,10.52
2023-03-10T13:26:39.547Z,10.40
2023-03-10T13:27:41.161Z,10.30
2023-03-10T13:28:58.137Z,10.20
2023-03-10T13:30:04.389Z,10.30
2023-03-10T13:31:12.762Z,10.43
2023-03-10T13:32:19.242Z,10.37
2023-03-10T13:33:25.709Z,10.30
2023-03-10T13:34:29.399Z,10.15
2023-03-10T13:35:31.085Z,10.08
2023-03-10T13:36:34.019Z,10.16
2023-03-10T13:37:35.672Z,10.02
2023-03-10T13:38:42.564Z,9.93
2023-03-10T13:39:44.339Z,9.81
2023-03-10T13:41:00.935Z,9.70
2023-03-10T13:42:04.105Z,9.73
2023-03-10T13:43:07.940Z,9.69
2023-03-10T13:44:27.929Z,9.66
2023-03-10T13:45:34.151Z,9.69
2023-03-10T13:46:35.947Z,9.81
2023-03-10T13:47:40.182Z,9.70
2023-03-10T13:48:42.542Z,9.59
2023-03-10T13:49:56.382Z,9.42
2023-03-10T13:51:22.019Z,9.50
2023-03-10T13:52:26.158Z,9.45
2023-03-10T13:53:27.760Z,9.52
2023-03-10T13:54:32.150Z,9.60
2023-03-10T13:55:40.536Z,9.62
2023-03-10T13:56:43.311Z,9.57
2023-03-10T13:57:46.184Z,9.56
2023-03-10T13:58:49.207Z,9.51
2023-03-10T13:59:56.004Z,9.42
2023-03-10T14:01:00.784Z,9.44
2023-03-10T14:02:03.363Z,9.55
2023-03-10T14:03:04.851Z,9.55
2023-03-10T14:04:08.870Z,9.56
2023-03-10T14:05:38.214Z,9.67
2023-03-10T14:06:39.812Z,9.68
2023-03-10T14:07:58.607Z,9.60
2023-03-10T14:09:14.729Z,9.64
2023-03-10T14:10:19.814Z,9.64
2023-03-10T14:11:30.133Z,9.70
2023-03-10T14:12:48.409Z,9.65
2023-03-10T14:13:50.157Z,9.55
2023-03-10T14:14:52.603Z,9.51
2023-03-10T14:15:55.382Z,9.62
2023-03-10T14:16:59.758Z,9.73
2023-03-10T14:18:07.284Z,9.68
2023-03-10T14:19:10.099Z,9.74
2023-03-10T14:20:13.028Z,9.76
2023-03-10T14:21:31.394Z,9.61
2023-03-10T14:22:40.569Z,9.56
2023-03-10T14:23:42.182Z,9.48